Time,TemperatureF,DewpointF,PressureIn,WindDirection,WindDirectionDegrees,WindSpeedMPH,WindSpeedGustMPH,Humidity,HourlyPrecipIn,Conditions,Clouds,dailyrainin,SolarRadiationWatts/m^2,SoftwareType,DateUTC
2013-07-24 00:01:00,53.0,40.0,-100.00,NNW,341,2.0,11.0,62,0.00,,,0.00,0.000000,,2013-07-24 06:01:00,
2013-07-24 00:11:00,53.0,40.0,-100.00,NNW,341,2.0,11.0,62,0.00,,,0.00,0.000000,,2013-07-24 06:11:00,
2013-07-24 00:24:00,53.0,40.0,-100.00,NNW,341,2.0,11.0,62,0.00,,,0.00,0.000000,,2013-07-24 06:24:00,
2013-07-24 00:34:00,53.0,40.0,-100.00,NNW,341,2.0,11.0,62,0.00,,,0.00,0.000000,,2013-07-24 06:34:00,
2013-07-24 00:40:00,52.0,41.0,-100.00,WNW,295,0.0,6.0,65,0.00,,,0.00,0.000000,,2013-07-24 06:40:00,
2013-07-24 01:02:00,52.0,41.0,-100.00,WNW,295,0.0,6.0,65,0.00,,,0.00,0.000000,,2013-07-24 07:02:00,
2013-07-24 01:12:00,52.0,41.0,-100.00,WNW,295,0.0,6.0,65,0.00,,,0.00,0.000000,,2013-07-24 07:12:00,
2013-07-24 01:22:00,52.0,41.0,-100.00,WNW,295,0.0,6.0,65,0.00,,,0.00,0.000000,,2013-07-24 07:22:00,
2013-07-24 01:32:00,52.0,41.0,-100.00,WNW,295,0.0,6.0,65,0.00,,,0.00,0.000000,,2013-07-24 07:32:00,
2013-07-24 01:40:00,51.0,41.0,-100.00,WSW,239,2.0,4.0,69,0.00,,,0.00,0.000000,,2013-07-24 07:40:00,
2013-07-24 02:12:00,51.0,41.0,-100.00,WSW,239,2.0,4.0,69,0.00,,,0.00,0.000000,,2013-07-24 08:12:00,
2013-07-24 02:22:00,51.0,41.0,-100.00,WSW,239,2.0,4.0,69,0.00,,,0.00,0.000000,,2013-07-24 08:22:00,
2013-07-24 02:32:00,51.0,41.0,-100.00,WSW,239,2.0,4.0,69,0.00,,,0.00,0.000000,,2013-07-24 08:32:00,
2013-07-24 02:40:00,53.0,39.0,-100.00,South,180,3.0,5.0,60,0.00,,,0.00,0.000000,,2013-07-24 08:40:00,
2013-07-24 03:02:00,53.0,39.0,-100.00,South,180,3.0,5.0,60,0.00,,,0.00,0.000000,,2013-07-24 09:02:00,
2013-07-24 03:12:00,53.0,39.0,-100.00,South,180,3.0,5.0,60,0.00,,,0.00,0.000000,,2013-07-24 09:12:00,
2013-07-24 03:22:00,53.0,39.0,-100.00,South,180,3.0,5.0,60,0.00,,,0.00,0.000000,,2013-07-24 09:22:00,
2013-07-24 03:32:00,53.0,39.0,-100.00,South,180,3.0,5.0,60,0.00,,,0.00,0.000000,,2013-07-24 09:32:00,
2013-07-24 03:40:00,54.0,37.0,-100.00,South,176,3.0,6.0,53,0.00,,,0.00,0.000000,,2013-07-24 09:40:00,
2013-07-24 04:02:00,54.0,37.0,-100.00,South,176,3.0,6.0,53,0.00,,,0.00,0.000000,,2013-07-24 10:02:00,
2013-07-24 04:12:00,54.0,37.0,-100.00,South,176,3.0,6.0,53,0.00,,,0.00,0.000000,,2013-07-24 10:12:00,
2013-07-24 04:22:00,54.0,37.0,-100.00,South,176,3.0,6.0,53,0.00,,,0.00,0.000000,,2013-07-24 10:22:00,
2013-07-24 04:33:00,54.0,37.0,-100.00,South,176,3.0,6.0,53,0.00,,,0.00,0.000000,,2013-07-24 10:33:00,
2013-07-24 04:40:00,53.0,37.0,-100.00,South,181,3.0,5.0,55,0.00,,,0.00,0.000000,,2013-07-24 10:40:00,
2013-07-24 05:12:00,53.0,37.0,-100.00,South,181,3.0,5.0,55,0.00,,,0.00,0.000000,,2013-07-24 11:12:00,
2013-07-24 05:22:00,53.0,37.0,-100.00,South,181,3.0,5.0,55,0.00,,,0.00,0.000000,,2013-07-24 11:22:00,
2013-07-24 05:32:00,53.0,37.0,-100.00,South,181,3.0,5.0,55,0.00,,,0.00,0.000000,,2013-07-24 11:32:00,
2013-07-24 05:40:00,54.0,40.0,-100.00,South,179,3.0,5.0,58,0.00,,,0.00,0.000000,,2013-07-24 11:40:00,
2013-07-24 06:02:00,54.0,40.0,-100.00,South,179,3.0,5.0,58,0.00,,,0.00,0.000000,,2013-07-24 12:02:00,
2013-07-24 06:12:00,54.0,40.0,-100.00,South,179,3.0,5.0,58,0.00,,,0.00,0.000000,,2013-07-24 12:12:00,
2013-07-24 06:22:00,54.0,40.0,-100.00,South,179,3.0,5.0,58,0.00,,,0.00,0.000000,,2013-07-24 12:22:00,
2013-07-24 06:32:00,54.0,40.0,-100.00,South,179,3.0,5.0,58,0.00,,,0.00,0.000000,,2013-07-24 12:32:00,
2013-07-24 06:40:00,54.0,37.0,-100.00,South,182,4.0,6.0,53,0.00,,,0.00,22.000000,,2013-07-24 12:40:00,
2013-07-24 07:12:00,54.0,37.0,-100.00,South,182,4.0,6.0,53,0.00,,,0.00,22.000000,,2013-07-24 13:12:00,
2013-07-24 07:22:00,54.0,37.0,-100.00,South,182,4.0,6.0,53,0.00,,,0.00,22.000000,,2013-07-24 13:22:00,
2013-07-24 07:32:00,54.0,37.0,-100.00,South,182,4.0,6.0,53,0.00,,,0.00,22.000000,,2013-07-24 13:32:00,
2013-07-24 08:40:00,66.0,40.0,-100.00,SSE,167,2.0,6.0,39,-99.99,,,0.00,388.000000,,2013-07-24 14:40:00,
2013-07-24 09:32:00,66.0,40.0,-100.00,SSE,167,2.0,6.0,39,-99.99,,,0.00,388.000000,,2013-07-24 15:32:00,
2013-07-24 09:40:00,67.0,40.0,-100.00,ENE,72,3.0,7.0,37,0.00,,,0.00,635.000000,,2013-07-24 15:40:00,
2013-07-24 10:32:00,67.0,40.0,-100.00,ENE,72,3.0,7.0,37,0.00,,,0.00,635.000000,,2013-07-24 16:32:00,
2013-07-24 10:40:00,71.0,42.0,-100.00,NE,51,4.0,10.0,35,0.00,,,0.00,811.000000,,2013-07-24 16:40:00,
2013-07-24 11:33:00,71.0,42.0,-100.00,NE,51,4.0,10.0,35,0.00,,,0.00,811.000000,,2013-07-24 17:33:00,
2013-07-24 11:40:00,71.0,39.0,-100.00,ENE,78,5.0,10.0,31,0.00,,,0.00,986.000000,,2013-07-24 17:40:00,
2013-07-24 12:12:00,71.0,39.0,-100.00,ENE,78,5.0,10.0,31,0.00,,,0.00,986.000000,,2013-07-24 18:12:00,
2013-07-24 12:22:00,71.0,39.0,-100.00,ENE,78,5.0,10.0,31,0.00,,,0.00,986.000000,,2013-07-24 18:22:00,
2013-07-24 12:33:00,71.0,39.0,-100.00,ENE,78,5.0,10.0,31,0.00,,,0.00,986.000000,,2013-07-24 18:33:00,
2013-07-24 13:40:00,70.0,37.0,-100.00,ENE,76,7.0,14.0,30,0.00,,,0.00,792.000000,,2013-07-24 19:40:00,
2013-07-24 14:13:00,70.0,37.0,-100.00,ENE,76,7.0,14.0,30,0.00,,,0.00,792.000000,,2013-07-24 20:13:00,
2013-07-24 14:23:00,70.0,37.0,-100.00,ENE,76,7.0,14.0,30,0.00,,,0.00,792.000000,,2013-07-24 20:23:00,
2013-07-24 14:32:00,70.0,37.0,-100.00,ENE,76,7.0,14.0,30,0.00,,,0.00,792.000000,,2013-07-24 20:32:00,
2013-07-24 14:40:00,74.0,36.0,-100.00,ENE,72,6.0,18.0,25,0.00,,,0.00,912.000000,,2013-07-24 20:40:00,
2013-07-24 15:12:00,74.0,36.0,-100.00,ENE,72,6.0,18.0,25,0.00,,,0.00,912.000000,,2013-07-24 21:12:00,
2013-07-24 15:22:00,74.0,36.0,-100.00,ENE,72,6.0,18.0,25,0.00,,,0.00,912.000000,,2013-07-24 21:22:00,
2013-07-24 15:32:00,74.0,36.0,-100.00,ENE,72,6.0,18.0,25,0.00,,,0.00,912.000000,,2013-07-24 21:32:00,
2013-07-24 15:40:00,73.0,35.0,-100.00,ENE,69,6.0,17.0,25,0.00,,,0.00,627.000000,,2013-07-24 21:40:00,
2013-07-24 16:12:00,73.0,35.0,-100.00,ENE,69,6.0,17.0,25,0.00,,,0.00,627.000000,,2013-07-24 22:12:00,
2013-07-24 16:22:00,73.0,35.0,-100.00,ENE,69,6.0,17.0,25,0.00,,,0.00,627.000000,,2013-07-24 22:22:00,
2013-07-24 16:32:00,73.0,35.0,-100.00,ENE,69,6.0,17.0,25,0.00,,,0.00,627.000000,,2013-07-24 22:32:00,
2013-07-24 16:40:00,73.0,34.0,-100.00,ENE,73,6.0,15.0,24,0.00,,,0.00,727.000000,,2013-07-24 22:40:00,
2013-07-24 17:02:00,73.0,34.0,-100.00,ENE,73,6.0,15.0,24,0.00,,,0.00,727.000000,,2013-07-24 23:02:00,
2013-07-24 17:12:00,73.0,34.0,-100.00,ENE,73,6.0,15.0,24,0.00,,,0.00,727.000000,,2013-07-24 23:12:00,
2013-07-24 17:22:00,73.0,34.0,-100.00,ENE,73,6.0,15.0,24,0.00,,,0.00,727.000000,,2013-07-24 23:22:00,
2013-07-24 17:32:00,73.0,34.0,-100.00,ENE,73,6.0,15.0,24,0.00,,,0.00,727.000000,,2013-07-24 23:32:00,
2013-07-24 17:40:00,69.0,32.0,-100.00,West,263,3.0,10.0,25,0.00,,,0.00,226.000000,,2013-07-24 23:40:00,
2013-07-24 18:02:00,69.0,32.0,-100.00,West,263,3.0,10.0,25,0.00,,,0.00,226.000000,,2013-07-25 00:02:00,
2013-07-24 18:12:00,69.0,32.0,-100.00,West,263,3.0,10.0,25,0.00,,,0.00,226.000000,,2013-07-25 00:12:00,
2013-07-24 18:22:00,69.0,32.0,-100.00,West,263,3.0,10.0,25,0.00,,,0.00,226.000000,,2013-07-25 00:22:00,
2013-07-24 18:33:00,69.0,32.0,-100.00,West,263,3.0,10.0,25,0.00,,,0.00,226.000000,,2013-07-25 00:33:00,
2013-07-24 19:40:00,60.0,41.0,-100.00,SSE,165,5.0,28.0,49,-99.99,,,0.17,171.000000,,2013-07-25 01:40:00,
2013-07-24 20:02:00,60.0,41.0,-100.00,SSE,165,5.0,28.0,49,-99.99,,,0.17,171.000000,,2013-07-25 02:02:00,
2013-07-24 20:12:00,60.0,41.0,-100.00,SSE,165,5.0,28.0,49,-99.99,,,0.17,171.000000,,2013-07-25 02:12:00,
2013-07-24 20:22:00,60.0,41.0,-100.00,SSE,165,5.0,28.0,49,-99.99,,,0.17,171.000000,,2013-07-25 02:22:00,
2013-07-24 20:33:00,60.0,41.0,-100.00,SSE,165,5.0,28.0,49,-99.99,,,0.17,171.000000,,2013-07-25 02:33:00,
2013-07-24 20:40:00,57.0,42.0,-100.00,South,181,7.0,15.0,58,0.00,,,0.17,39.000000,,2013-07-25 02:40:00,
2013-07-24 21:02:00,57.0,42.0,-100.00,South,181,7.0,15.0,58,0.00,,,0.17,39.000000,,2013-07-25 03:02:00,
2013-07-24 21:24:00,57.0,42.0,-100.00,South,181,7.0,15.0,58,0.00,,,0.17,39.000000,,2013-07-25 03:24:00,
2013-07-24 21:36:00,57.0,42.0,-100.00,South,181,7.0,15.0,58,0.00,,,0.17,39.000000,,2013-07-25 03:36:00,
2013-07-24 21:40:00,59.0,37.0,-100.00,SSW,211,9.0,13.0,43,0.00,,,0.17,2.000000,,2013-07-25 03:40:00,
2013-07-24 22:12:00,59.0,37.0,-100.00,SSW,211,9.0,13.0,43,0.00,,,0.17,2.000000,,2013-07-25 04:12:00,
2013-07-24 22:22:00,59.0,37.0,-100.00,SSW,211,9.0,13.0,43,0.00,,,0.17,2.000000,,2013-07-25 04:22:00,
2013-07-24 22:32:00,59.0,37.0,-100.00,SSW,211,9.0,13.0,43,0.00,,,0.17,2.000000,,2013-07-25 04:32:00,
2013-07-24 22:40:00,59.0,35.0,-100.00,SSW,210,7.0,12.0,40,0.00,,,0.17,0.000000,,2013-07-25 04:40:00,
2013-07-24 23:12:00,59.0,35.0,-100.00,SSW,210,7.0,12.0,40,0.00,,,0.17,0.000000,,2013-07-25 05:12:00,
2013-07-24 23:22:00,59.0,35.0,-100.00,SSW,210,7.0,12.0,40,0.00,,,0.17,0.000000,,2013-07-25 05:22:00,
2013-07-24 23:32:00,59.0,35.0,-100.00,SSW,210,7.0,12.0,40,0.00,,,0.17,0.000000,,2013-07-25 05:32:00,
2013-07-24 23:40:00,60.0,35.0,-100.00,WSW,246,5.0,9.0,39,0.00,,,0.17,0.000000,,2013-07-25 05:40:00,